メインページ
METAR-TAF:

METAR-TAF

空港 :

カラカス, ベネズエラ

シモン・ボリバル国際空港

緯度: 10-36N, 経度: 066-59W, 海抜: 43m

現時点の気象観測

当レポートは41分前の19:00(UTC)に作成
北/北東の風 4kt
気温 30°C
湿度 59%
気圧 1011 hPa
視程10km以上
高度1600ftの千切れ雲あり

METAR: SVMI 251900Z 02004KT 9999 BKN016 30/21 Q1011

時間: 15:41 (19:41 UTC)

予報

当レポートは3時間41分前の16:00(UTC)に作成
予報は25日の 18時(UTC)から 26日の 18時(UTC)まで有効
南東の風 10kt
視程10km以上
高度1600ftの千切れ雲あり
25日の 18時(UTC)から 25日の 22時(UTC)まで徐々に
の風 12kt
高度1300ftの雲は散在している
高度7000ftの千切れ雲あり

TAF: SVMI 251600Z 2518/2618 14010KT 9999 BKN016 TX32/19Z TN23/09Z BECMG 2518/2522 08012KT SCT013 BKN070

4,000以上の空港の気象観測と天気予報(METAR報とTAF報)

利用可能な観測所は地図上に黄色い丸と赤い丸で示す。

丸の上にカーソルを重ねると観測所名を参照できる。

次にクリックすると気象観測と天気予報を参照できる。

マップの切り替え:黒色「×」印の緑ボタンをクリックして拡大、「-」印の緑ボタンをクリックして縮小、緑色の三角印をクリックして隣りの地図に切り替え


METAR-TAF: